Mercer, North Dakota
Current Conditions -  °F | °C
As of 1:35 PM on Thursday 27 Nov 2014 (Local Time) from K5H4 Reporting Station
Few Clouds Few Clouds  
Wind Chill: -6°   Ceiling: Unl
Heat Index:   Visibility: 10mi
Dew Point:   Wind: 12mph
Humidity: 73%   Direction: 140°SE
Pressure: 30.16"   Gusts: NA
Location:  47.49°N, 100.71°W
Report Text: K5H4 271935Z AUTO 14010KT 10SM FEW050 M13/M17 A3016 RMK AO2
Loading
Personal Weather Stations






























Interactive Weather Map New forecast layout! Learn more

10-Day Weather Forecast

Advertisements
Track Severe Weather on mobile